createdAt,value
2024-04-18T00:02:24.708Z,100613.40
2024-04-18T00:04:52.847Z,100615.20
2024-04-18T00:07:31.689Z,100614.20
2024-04-18T00:10:16.143Z,100617.80
2024-04-18T00:12:44.079Z,100613.80
2024-04-18T00:15:24.419Z,100616.20
2024-04-18T00:17:58.588Z,100612.60
2024-04-18T00:20:28.375Z,100607.20
2024-04-18T00:22:56.268Z,100608.00
2024-04-18T00:25:32.912Z,100607.80
2024-04-18T00:28:00.954Z,100607.80
2024-04-18T00:30:41.997Z,100609.40
2024-04-18T00:33:10.487Z,100607.20
2024-04-18T00:35:41.787Z,100607.80
2024-04-18T00:38:16.189Z,100610.20
2024-04-18T00:40:44.850Z,100610.20
2024-04-18T00:43:21.401Z,100606.60
2024-04-18T00:45:58.777Z,100608.20
2024-04-18T00:48:29.496Z,100603.20
2024-04-18T00:51:03.312Z,100602.20
2024-04-18T00:53:32.139Z,100604.40
2024-04-18T00:56:20.412Z,100602.80
2024-04-18T00:58:51.398Z,100602.40
2024-04-18T01:01:22.802Z,100611.20
2024-04-18T01:03:59.896Z,100609.40
2024-04-18T01:06:43.795Z,100612.00
2024-04-18T01:09:17.573Z,100612.60
2024-04-18T01:12:04.915Z,100616.60
2024-04-18T01:14:32.762Z,100617.00
2024-04-18T01:17:04.496Z,100615.60
2024-04-18T01:19:32.701Z,100618.40
2024-04-18T01:22:04.914Z,100616.60
2024-04-18T01:24:34.483Z,100622.80
2024-04-18T01:27:02.588Z,100631.80
2024-04-18T01:29:45.683Z,100631.20
2024-04-18T01:32:36.458Z,100633.00
2024-04-18T01:35:06.240Z,100635.00
2024-04-18T01:37:49.368Z,100634.60
2024-04-18T01:40:17.540Z,100635.60
2024-04-18T01:43:07.846Z,100640.20
2024-04-18T01:45:35.624Z,100642.40
2024-04-18T01:48:15.746Z,100645.00
2024-04-18T01:51:04.278Z,100644.40
2024-04-18T01:53:34.798Z,100640.40
2024-04-18T01:56:02.681Z,100641.00
2024-04-18T01:58:47.566Z,100642.40
2024-04-18T02:01:15.698Z,100638.60
2024-04-18T02:03:43.901Z,100641.20
2024-04-18T02:06:14.505Z,100642.40
2024-04-18T02:08:48.941Z,100639.20
2024-04-18T02:11:42.910Z,100642.20
2024-04-18T02:14:13.153Z,100642.40
2024-04-18T02:16:41.097Z,100641.80
2024-04-18T02:19:24.255Z,100643.80
2024-04-18T02:22:10.488Z,100648.40
2024-04-18T02:25:06.760Z,100653.20
2024-04-18T02:27:34.661Z,100654.80
2024-04-18T02:30:22.984Z,100659.60
2024-04-18T02:33:15.102Z,100664.00
2024-04-18T02:35:47.689Z,100669.60
2024-04-18T02:38:34.551Z,100671.20
2024-04-18T02:41:07.019Z,100670.20
2024-04-18T02:43:55.411Z,100673.20
2024-04-18T02:46:24.055Z,100672.40
2024-04-18T02:49:10.725Z,100673.40
2024-04-18T02:51:58.815Z,100673.80
2024-04-18T02:54:45.610Z,100673.20
2024-04-18T02:57:13.837Z,100672.00
2024-04-18T02:59:41.843Z,100674.40
2024-04-18T03:02:25.770Z,100677.60
2024-04-18T03:05:17.912Z,100673.20
2024-04-18T03:07:45.813Z,100677.80
2024-04-18T03:10:13.721Z,100681.60
2024-04-18T03:13:04.528Z,100685.00
2024-04-18T03:15:50.903Z,100692.00
2024-04-18T03:18:18.865Z,100691.20
2024-04-18T03:20:55.218Z,100691.40
2024-04-18T03:23:41.759Z,100694.60
2024-04-18T03:26:09.611Z,100696.60
2024-04-18T03:28:37.373Z,100699.00
2024-04-18T03:31:05.456Z,100700.60
2024-04-18T03:33:34.895Z,100705.80
2024-04-18T03:36:06.753Z,100702.80
2024-04-18T03:38:34.644Z,100708.60
2024-04-18T03:41:02.448Z,100708.00
2024-04-18T03:43:30.199Z,100712.20
2024-04-18T03:46:01.847Z,100710.80
2024-04-18T03:48:30.428Z,100708.20
2024-04-18T03:50:58.491Z,100710.80
2024-04-18T03:53:46.281Z,100717.00
2024-04-18T03:56:14.237Z,100720.20
2024-04-18T03:58:42.025Z,100719.80
2024-04-18T04:01:10.082Z,100718.40
2024-04-18T04:03:38.352Z,100727.60
2024-04-18T04:06:06.515Z,100733.40
2024-04-18T04:08:34.470Z,100738.60
2024-04-18T04:11:11.279Z,100739.80
2024-04-18T04:13:39.259Z,100739.00
2024-04-18T04:16:21.302Z,100738.60
2024-04-18T04:19:09.578Z,100745.20
2024-04-18T04:21:49.749Z,100747.60
2024-04-18T04:24:18.142Z,100747.00
2024-04-18T04:26:52.542Z,100755.20
2024-04-18T04:29:21.309Z,100758.60
2024-04-18T04:31:49.129Z,100763.20
2024-04-18T04:34:18.002Z,100761.80
2024-04-18T04:36:45.950Z,100762.00
2024-04-18T04:39:13.830Z,100763.60
2024-04-18T04:41:42.001Z,100765.80
2024-04-18T04:44:09.895Z,100762.40
2024-04-18T04:46:51.708Z,100771.60
2024-04-18T04:49:20.856Z,100774.00
2024-04-18T04:52:06.410Z,100779.40
2024-04-18T04:54:45.267Z,100784.00
2024-04-18T04:57:14.754Z,100778.80
2024-04-18T04:59:46.778Z,100779.40
2024-04-18T05:02:14.835Z,100786.20
2024-04-18T05:04:52.159Z,100789.40
2024-04-18T05:07:33.236Z,100791.40
2024-04-18T05:10:20.826Z,100787.40
2024-04-18T05:12:51.320Z,100783.00
2024-04-18T05:15:37.868Z,100782.80
2024-04-18T05:18:07.809Z,100776.40
2024-04-18T05:20:35.705Z,100778.00
2024-04-18T05:23:05.344Z,100772.60
2024-04-18T05:25:33.457Z,100774.60
2024-04-18T05:28:30.862Z,100770.60
2024-04-18T05:31:02.270Z,100767.00
2024-04-18T05:33:34.142Z,100761.40
2024-04-18T05:36:04.273Z,100759.80
2024-04-18T05:38:32.259Z,100762.40
2024-04-18T05:41:00.059Z,100761.00
2024-04-18T05:43:46.581Z,100765.80
2024-04-18T05:46:14.395Z,100772.80
2024-04-18T05:48:42.246Z,100778.20
2024-04-18T05:51:10.355Z,100784.20
2024-04-18T05:53:58.188Z,100789.20
2024-04-18T05:56:32.031Z,100791.20
2024-04-18T05:58:59.877Z,100797.40
2024-04-18T06:01:27.890Z,100793.00
2024-04-18T06:03:55.895Z,100790.40
2024-04-18T06:06:23.983Z,100798.40
2024-04-18T06:08:55.106Z,100801.60
2024-04-18T06:11:37.223Z,100808.60
2024-04-18T06:14:19.799Z,100807.60
2024-04-18T06:16:47.706Z,100809.80
2024-04-18T06:19:15.955Z,100813.80
2024-04-18T06:21:43.960Z,100821.00
2024-04-18T06:24:11.873Z,100814.20
2024-04-18T06:26:44.672Z,100796.60
2024-04-18T06:29:13.249Z,100778.80
2024-04-18T06:31:41.077Z,100765.40
2024-04-18T06:34:09.635Z,100765.60
2024-04-18T06:36:37.510Z,100751.40
2024-04-18T06:39:07.891Z,100738.40
2024-04-18T06:41:37.178Z,100733.00
2024-04-18T06:44:05.192Z,100735.40
2024-04-18T06:46:39.686Z,100732.40
2024-04-18T06:49:12.980Z,100737.60
2024-04-18T06:51:40.958Z,100739.20
2024-04-18T06:54:09.721Z,100749.20
2024-04-18T06:56:37.680Z,100738.00
2024-04-18T06:59:05.545Z,100739.00
2024-04-18T07:01:42.244Z,100740.80
2024-04-18T07:04:10.668Z,100741.40
2024-04-18T07:06:38.787Z,100738.80
2024-04-18T07:09:06.695Z,100749.40
2024-04-18T07:11:43.741Z,100754.60
2024-04-18T07:14:12.020Z,100759.00
2024-04-18T07:16:39.817Z,100771.40
2024-04-18T07:19:26.202Z,100788.20
2024-04-18T07:21:57.846Z,100792.20
2024-04-18T07:24:27.630Z,100803.20
2024-04-18T07:26:57.004Z,100807.40
2024-04-18T07:29:25.368Z,100816.80
2024-04-18T07:31:53.151Z,100821.00
2024-04-18T07:34:21.252Z,100820.20
2024-04-18T07:36:50.013Z,100837.20
2024-04-18T07:39:19.615Z,100835.00
2024-04-18T07:41:47.974Z,100828.00
2024-04-18T07:44:15.685Z,100831.00
2024-04-18T07:46:45.287Z,100825.00
2024-04-18T07:49:13.497Z,100829.20
2024-04-18T07:51:42.641Z,100831.20
2024-04-18T07:54:10.593Z,100824.40
2024-04-18T07:56:38.763Z,100817.80
2024-04-18T07:59:07.270Z,100826.80
2024-04-18T08:01:38.154Z,100826.40
2024-04-18T08:04:27.423Z,100830.60
2024-04-18T08:06:58.485Z,100842.00
2024-04-18T08:09:30.525Z,100846.20
2024-04-18T08:14:35.471Z,100859.40
2024-04-18T08:17:06.050Z,100855.80
2024-04-18T08:19:34.014Z,100852.80
2024-04-18T08:22:04.105Z,100864.20
2024-04-18T08:24:35.049Z,100872.40
2024-04-18T08:27:09.212Z,100872.00
2024-04-18T08:29:37.433Z,100874.40
2024-04-18T08:32:05.802Z,100862.80
2024-04-18T08:34:40.164Z,100853.40
2024-04-18T08:37:10.563Z,100855.80
2024-04-18T08:39:38.488Z,100858.40
2024-04-18T08:42:15.297Z,100853.40
2024-04-18T08:44:43.464Z,100857.60
2024-04-18T08:47:13.287Z,100854.60
2024-04-18T08:49:42.607Z,100859.60
2024-04-18T08:52:13.571Z,100866.40
2024-04-18T08:54:41.708Z,100867.00
2024-04-18T08:57:12.782Z,100872.00
2024-04-18T08:59:43.698Z,100878.40
2024-04-18T09:02:11.438Z,100878.40
2024-04-18T09:04:40.950Z,100883.00
2024-04-18T09:07:08.723Z,100879.80
2024-04-18T09:09:36.938Z,100876.80
2024-04-18T09:12:07.603Z,100868.20
2024-04-18T09:14:35.759Z,100860.40
2024-04-18T09:17:14.201Z,100857.20
2024-04-18T09:19:42.090Z,100856.60
2024-04-18T09:22:09.968Z,100854.60
2024-04-18T09:24:44.583Z,100866.20
2024-04-18T09:27:16.468Z,100870.60
2024-04-18T09:29:47.468Z,100875.00
2024-04-18T09:32:17.874Z,100873.80
2024-04-18T09:34:50.796Z,100879.40
2024-04-18T09:37:23.166Z,100879.60
2024-04-18T09:39:57.023Z,100882.20
2024-04-18T09:42:54.279Z,100878.60
2024-04-18T09:45:25.448Z,100879.80
2024-04-18T09:47:54.026Z,100873.20
2024-04-18T09:50:22.787Z,100859.20
2024-04-18T09:52:50.752Z,100854.00
2024-04-18T09:55:23.748Z,100858.00
2024-04-18T09:57:54.670Z,100858.60
2024-04-18T10:00:23.384Z,100850.40
2024-04-18T10:02:54.326Z,100865.00
2024-04-18T10:05:24.535Z,100869.40
2024-04-18T10:07:53.331Z,100870.80
2024-04-18T10:10:22.442Z,100879.60
2024-04-18T10:12:53.725Z,100874.00
2024-04-18T10:15:21.805Z,100874.60
2024-04-18T10:17:49.840Z,100879.80
2024-04-18T10:20:17.764Z,100877.00
2024-04-18T10:22:55.754Z,100874.60
2024-04-18T10:25:24.353Z,100870.40
2024-04-18T10:27:52.539Z,100864.80
2024-04-18T10:30:23.757Z,100857.00
2024-04-18T10:32:53.559Z,100848.00
2024-04-18T10:35:22.311Z,100844.80
2024-04-18T10:37:51.673Z,100846.00
2024-04-18T10:40:19.651Z,100850.20
2024-04-18T10:42:47.484Z,100849.40
2024-04-18T10:45:16.877Z,100849.40
2024-04-18T10:47:49.284Z,100850.20
2024-04-18T10:50:18.793Z,100840.40
2024-04-18T10:52:48.235Z,100835.20
2024-04-18T10:55:16.417Z,100834.20
2024-04-18T10:57:44.418Z,100830.40
2024-04-18T11:00:19.659Z,100833.40
2024-04-18T11:02:48.787Z,100835.20
2024-04-18T11:05:16.865Z,100835.40
2024-04-18T11:07:56.753Z,100855.80
2024-04-18T11:10:26.320Z,100853.20
2024-04-18T11:12:57.199Z,100855.80
2024-04-18T11:15:25.174Z,100850.00
2024-04-18T11:17:53.760Z,100852.60
2024-04-18T11:20:21.972Z,100841.60
2024-04-18T11:22:54.040Z,100856.00
2024-04-18T11:25:25.764Z,100851.80
2024-04-18T11:28:13.747Z,100857.80
2024-04-18T11:30:43.626Z,100853.00
2024-04-18T11:33:12.289Z,100855.60
2024-04-18T11:35:40.601Z,100877.00
2024-04-18T11:38:12.359Z,100879.20
2024-04-18T11:40:40.896Z,100889.80
2024-04-18T11:43:10.701Z,100893.00
2024-04-18T11:45:39.043Z,100888.20
2024-04-18T11:48:07.601Z,100892.00
2024-04-18T11:50:35.605Z,100893.00
2024-04-18T11:53:03.785Z,100889.80
2024-04-18T11:55:31.574Z,100884.00
2024-04-18T11:58:19.510Z,100880.20
2024-04-18T12:00:47.440Z,100873.80
2024-04-18T12:03:15.591Z,100866.20
2024-04-18T12:06:04.718Z,100868.80
2024-04-18T12:08:32.671Z,100863.80
2024-04-18T12:11:00.575Z,100863.40
2024-04-18T12:13:37.394Z,100865.20
2024-04-18T12:16:25.781Z,100865.00
2024-04-18T12:19:10.625Z,100866.80
2024-04-18T12:21:38.534Z,100862.40
2024-04-18T12:24:06.707Z,100857.00
2024-04-18T12:26:36.490Z,100862.80
2024-04-18T12:29:04.455Z,100863.20
2024-04-18T12:31:32.392Z,100868.80
2024-04-18T12:34:00.399Z,100861.20
2024-04-18T12:36:29.976Z,100862.00
2024-04-18T12:39:17.213Z,100863.60
2024-04-18T12:41:45.685Z,100861.80
2024-04-18T12:44:17.356Z,100859.80
2024-04-18T12:46:48.173Z,100854.80
2024-04-18T12:49:16.168Z,100866.60
2024-04-18T12:51:44.953Z,100867.00
2024-04-18T12:54:12.992Z,100867.60
2024-04-18T12:56:50.014Z,100871.40
2024-04-18T12:59:25.240Z,100873.40
2024-04-18T13:01:54.057Z,100871.20
2024-04-18T13:04:22.338Z,100873.60
2024-04-18T13:06:50.904Z,100870.20
2024-04-18T13:09:33.845Z,100870.00
2024-04-18T13:12:04.914Z,100871.40
2024-04-18T13:14:51.721Z,100875.00
2024-04-18T13:17:19.853Z,100879.80
2024-04-18T13:19:48.671Z,100883.40
2024-04-18T13:22:17.141Z,100886.40
2024-04-18T13:24:48.304Z,100892.20
2024-04-18T13:27:31.052Z,100895.80
2024-04-18T13:29:59.337Z,100899.80
2024-04-18T13:32:38.873Z,100900.80
2024-04-18T13:35:07.910Z,100899.40
2024-04-18T13:37:35.954Z,100897.00
2024-04-18T13:40:21.838Z,100893.00
2024-04-18T13:43:02.223Z,100890.80
2024-04-18T13:45:34.674Z,100889.00
2024-04-18T13:48:07.085Z,100894.00
2024-04-18T13:50:45.513Z,100895.40
2024-04-18T13:53:16.524Z,100891.40
2024-04-18T13:55:50.193Z,100894.00
2024-04-18T13:58:23.348Z,100892.40
2024-04-18T14:00:59.837Z,100898.60
2024-04-18T14:03:28.593Z,100898.20
2024-04-18T14:06:09.745Z,100895.60
2024-04-18T14:08:41.994Z,100903.60
2024-04-18T14:11:29.970Z,100915.80
2024-04-18T14:14:08.905Z,100916.60
2024-04-18T14:16:56.290Z,100920.00
2024-04-18T14:19:33.532Z,100916.00
2024-04-18T14:22:10.137Z,100920.80
2024-04-18T14:24:38.087Z,100914.00
2024-04-18T14:27:06.060Z,100916.60
2024-04-18T14:29:54.065Z,100913.00
2024-04-18T14:32:34.306Z,100909.20
2024-04-18T14:35:05.898Z,100906.00
2024-04-18T14:37:33.784Z,100902.40
2024-04-18T14:40:01.657Z,100910.40
2024-04-18T14:42:29.678Z,100912.20
2024-04-18T14:44:57.734Z,100907.40
2024-04-18T14:47:25.582Z,100911.40
2024-04-18T14:50:03.593Z,100908.60
2024-04-18T14:52:37.199Z,100905.00
2024-04-18T14:55:30.054Z,100906.00
2024-04-18T14:58:15.687Z,100905.40
2024-04-18T15:00:51.251Z,100907.80
2024-04-18T15:03:19.545Z,100898.80
2024-04-18T15:05:55.292Z,100893.40
2024-04-18T15:08:42.494Z,100895.80
2024-04-18T15:11:27.886Z,100894.00
2024-04-18T15:14:13.891Z,100894.40
2024-04-18T15:16:41.755Z,100891.60
2024-04-18T15:19:09.651Z,100896.20
2024-04-18T15:21:56.145Z,100898.80
2024-04-18T15:24:24.196Z,100900.80
2024-04-18T15:27:04.511Z,100905.20
2024-04-18T15:29:33.870Z,100914.60
2024-04-18T15:32:24.144Z,100931.40
2024-04-18T15:35:12.101Z,100957.20
2024-04-18T15:38:00.250Z,100962.40
2024-04-18T15:40:34.600Z,100969.60
2024-04-18T15:43:06.258Z,100966.00
2024-04-18T15:45:40.652Z,100969.00
2024-04-18T15:48:24.001Z,100972.40
2024-04-18T15:50:55.363Z,100972.00
2024-04-18T15:53:32.707Z,100972.20
2024-04-18T15:56:08.206Z,100966.40
2024-04-18T15:58:55.398Z,100956.00
2024-04-18T16:01:23.677Z,100948.00
2024-04-18T16:04:10.185Z,100940.20
2024-04-18T16:06:56.980Z,100945.20
2024-04-18T16:09:43.593Z,100947.00
2024-04-18T16:12:21.659Z,100942.20
2024-04-18T16:15:05.796Z,100940.60
2024-04-18T16:17:34.179Z,100939.40
2024-04-18T16:20:13.549Z,100935.00
2024-04-18T16:22:41.937Z,100937.80
2024-04-18T16:25:30.009Z,100931.40
2024-04-18T16:27:58.563Z,100925.80
2024-04-18T16:30:28.448Z,100922.60
2024-04-18T16:32:56.257Z,100923.60
2024-04-18T16:35:24.338Z,100919.40
2024-04-18T16:38:11.111Z,100916.60
2024-04-18T16:40:59.391Z,100916.40
2024-04-18T16:43:35.458Z,100918.60
2024-04-18T16:46:05.475Z,100910.40
2024-04-18T16:48:33.532Z,100914.40
2024-04-18T16:51:01.724Z,100911.00
2024-04-18T16:53:53.824Z,100912.60
2024-04-18T16:56:23.504Z,100913.40
2024-04-18T16:58:56.403Z,100910.00
2024-04-18T17:01:24.328Z,100909.80
2024-04-18T17:03:52.511Z,100911.00
2024-04-18T17:06:42.196Z,100909.00
2024-04-18T17:09:18.757Z,100908.60
2024-04-18T17:11:47.529Z,100910.40
2024-04-18T17:14:34.334Z,100910.40
2024-04-18T17:17:02.587Z,100912.80
2024-04-18T17:19:50.350Z,100913.40
2024-04-18T17:22:19.969Z,100917.40
2024-04-18T17:24:47.954Z,100918.20
2024-04-18T17:27:15.949Z,100917.40
2024-04-18T17:29:44.935Z,100918.00
2024-04-18T17:32:12.858Z,100926.00
2024-04-18T17:34:40.901Z,100920.00
2024-04-18T17:37:08.753Z,100920.40
2024-04-18T17:39:53.459Z,100919.00
2024-04-18T17:42:22.109Z,100923.40
2024-04-18T17:44:56.244Z,100926.00
2024-04-18T17:47:32.467Z,100929.00
2024-04-18T17:50:00.480Z,100933.20
2024-04-18T17:52:28.538Z,100929.80
2024-04-18T17:54:59.469Z,100934.20
2024-04-18T17:57:29.614Z,100930.80
2024-04-18T18:00:16.355Z,100930.80
2024-04-18T18:02:44.474Z,100930.80
2024-04-18T18:05:32.855Z,100933.20
2024-04-18T18:08:20.669Z,100930.80
2024-04-18T18:10:48.504Z,100932.40
2024-04-18T18:13:16.709Z,100932.20
2024-04-18T18:15:45.093Z,100934.60
2024-04-18T18:18:17.109Z,100935.20
2024-04-18T18:20:45.752Z,100933.20
2024-04-18T18:23:16.550Z,100933.60
2024-04-18T18:25:44.733Z,100940.60
2024-04-18T18:28:12.660Z,100937.60
2024-04-18T18:31:01.308Z,100940.00
2024-04-18T18:33:29.592Z,100940.80
2024-04-18T18:35:57.775Z,100942.80
2024-04-18T18:38:25.884Z,100948.40
2024-04-18T18:40:53.682Z,100949.60
2024-04-18T18:43:24.776Z,100942.60
2024-04-18T18:45:53.748Z,100946.60
2024-04-18T18:48:22.114Z,100946.00
2024-04-18T18:51:06.590Z,100943.60
2024-04-18T18:53:34.877Z,100946.00
2024-04-18T18:56:04.472Z,100947.20
2024-04-18T18:58:51.040Z,100947.40
2024-04-18T19:01:19.137Z,100943.60
2024-04-18T19:03:50.045Z,100955.80
2024-04-18T19:06:23.866Z,100951.20
2024-04-18T19:08:51.894Z,100951.40
2024-04-18T19:11:38.280Z,100948.40
2024-04-18T19:14:09.172Z,100948.20
2024-04-18T19:16:57.506Z,100947.80
2024-04-18T19:19:25.914Z,100942.60
2024-04-18T19:21:53.757Z,100941.40
2024-04-18T19:24:22.077Z,100945.60
2024-04-18T19:27:03.020Z,100947.20
2024-04-18T19:29:46.939Z,100942.00
2024-04-18T19:32:20.074Z,100938.20
2024-04-18T19:34:48.106Z,100934.40
2024-04-18T19:37:15.955Z,100934.80
2024-04-18T19:39:43.948Z,100934.00
2024-04-18T19:42:12.124Z,100929.40
2024-04-18T19:44:40.034Z,100927.00
2024-04-18T19:47:07.881Z,100923.00
2024-04-18T19:49:36.645Z,100926.00
2024-04-18T19:52:08.107Z,100925.80
2024-04-18T19:54:37.264Z,100922.00
2024-04-18T19:57:06.679Z,100922.80
2024-04-18T19:59:36.112Z,100925.80
2024-04-18T20:02:04.658Z,100926.20
2024-04-18T20:04:32.551Z,100923.60
2024-04-18T20:07:01.212Z,100918.40
2024-04-18T20:09:32.896Z,100918.00
2024-04-18T20:12:01.802Z,100917.00
2024-04-18T20:14:29.770Z,100915.40
2024-04-18T20:16:57.523Z,100913.40
2024-04-18T20:19:27.130Z,100910.20
2024-04-18T20:21:55.338Z,100906.60
2024-04-18T20:24:23.399Z,100907.60
2024-04-18T20:27:09.902Z,100905.60
2024-04-18T20:29:47.018Z,100895.60
2024-04-18T20:32:25.870Z,100902.20
2024-04-18T20:34:55.185Z,100898.00
2024-04-18T20:37:24.758Z,100894.40
2024-04-18T20:39:55.546Z,100893.60
2024-04-18T20:42:25.637Z,100889.20
2024-04-18T20:45:04.762Z,100894.20
2024-04-18T20:47:32.842Z,100890.80
2024-04-18T20:50:04.372Z,100889.40
2024-04-18T20:52:32.351Z,100884.20
2024-04-18T20:55:00.414Z,100885.20
2024-04-18T20:57:28.655Z,100884.20
2024-04-18T20:59:56.667Z,100877.20
2024-04-18T21:02:25.044Z,100880.60
2024-04-18T21:04:53.170Z,100879.20
2024-04-18T21:07:22.362Z,100876.80
2024-04-18T21:09:50.480Z,100872.80
2024-04-18T21:12:18.726Z,100866.20
2024-04-18T21:14:46.622Z,100861.20
2024-04-18T21:17:14.436Z,100864.40
2024-04-18T21:19:42.336Z,100865.60
2024-04-18T21:22:10.356Z,100868.60
2024-04-18T21:24:38.268Z,100868.40
2024-04-18T21:27:06.140Z,100861.00
2024-04-18T21:29:34.058Z,100863.00
2024-04-18T21:32:01.890Z,100867.60
2024-04-18T21:34:29.724Z,100872.00
2024-04-18T21:36:57.687Z,100871.00
2024-04-18T21:39:25.806Z,100871.20
2024-04-18T21:41:53.939Z,100869.80
2024-04-18T21:44:22.120Z,100865.40
2024-04-18T21:46:49.987Z,100865.60
2024-04-18T21:49:17.849Z,100863.40
2024-04-18T21:51:45.916Z,100858.40
2024-04-18T21:54:14.033Z,100848.20
2024-04-18T21:56:41.961Z,100850.40
2024-04-18T21:59:09.936Z,100844.40
2024-04-18T22:01:44.017Z,100850.60
2024-04-18T22:04:12.451Z,100851.60
2024-04-18T22:06:41.025Z,100842.60
2024-04-18T22:09:09.812Z,100844.40
2024-04-18T22:11:37.775Z,100840.40
2024-04-18T22:14:08.396Z,100838.20
2024-04-18T22:16:36.333Z,100841.20
2024-04-18T22:19:04.329Z,100837.80
2024-04-18T22:21:36.845Z,100831.00
2024-04-18T22:24:08.302Z,100828.00
2024-04-18T22:26:37.246Z,100829.60
2024-04-18T22:29:05.244Z,100831.80
2024-04-18T22:31:33.778Z,100829.80
2024-04-18T22:34:01.676Z,100825.40
2024-04-18T22:36:29.633Z,100823.80
2024-04-18T22:38:57.664Z,100832.80
2024-04-18T22:41:28.706Z,100832.20
2024-04-18T22:43:56.562Z,100825.20
2024-04-18T22:46:24.407Z,100820.00
2024-04-18T22:48:52.341Z,100824.20
2024-04-18T22:51:20.303Z,100818.40
2024-04-18T22:53:48.227Z,100819.20
2024-04-18T22:56:16.166Z,100816.40
2024-04-18T22:58:44.090Z,100815.60
2024-04-18T23:01:12.113Z,100809.20
2024-04-18T23:03:40.212Z,100803.60
2024-04-18T23:06:15.188Z,100799.60
2024-04-18T23:08:44.410Z,100800.80
2024-04-18T23:11:14.080Z,100794.20
2024-04-18T23:13:42.201Z,100792.00
2024-04-18T23:16:10.650Z,100790.80
2024-04-18T23:18:38.732Z,100786.40
2024-04-18T23:21:06.830Z,100789.00
2024-04-18T23:23:35.476Z,100783.20
2024-04-18T23:26:03.911Z,100786.00
2024-04-18T23:28:31.828Z,100781.20
2024-04-18T23:30:59.839Z,100790.20
2024-04-18T23:33:28.572Z,100791.80
2024-04-18T23:35:56.619Z,100789.60
2024-04-18T23:38:24.774Z,100787.00
2024-04-18T23:40:52.661Z,100783.60
2024-04-18T23:43:21.125Z,100776.20
2024-04-18T23:45:49.132Z,100780.00
2024-04-18T23:48:18.242Z,100773.20
2024-04-18T23:50:46.280Z,100766.60
2024-04-18T23:53:14.181Z,100768.20
2024-04-18T23:55:42.202Z,100772.60
2024-04-18T23:58:10.513Z,100769.60
